sensor_id;sensor_type;location;lat;lon;timestamp;P1;durP1;ratioP1;P2;durP2;ratioP2
19329;SDS011;9799;48.214;16.388;2022-12-18T00:00:00;13.20;;;7.17;;
19329;SDS011;9799;48.214;16.388;2022-12-18T00:03:23;12.93;;;8.07;;
19329;SDS011;9799;48.214;16.388;2022-12-18T00:06:44;13.60;;;10.10;;
19329;SDS011;9799;48.214;16.388;2022-12-18T00:10:05;10.40;;;7.57;;
19329;SDS011;9799;48.214;16.388;2022-12-18T00:13:27;13.50;;;8.10;;
19329;SDS011;9799;48.214;16.388;2022-12-18T00:16:48;9.30;;;6.93;;
19329;SDS011;9799;48.214;16.388;2022-12-18T00:20:11;9.17;;;6.40;;
19329;SDS011;9799;48.214;16.388;2022-12-18T00:23:32;12.60;;;7.43;;
19329;SDS011;9799;48.214;16.388;2022-12-18T00:26:55;8.27;;;6.40;;
19329;SDS011;9799;48.214;16.388;2022-12-18T00:30:16;8.63;;;6.53;;
19329;SDS011;9799;48.214;16.388;2022-12-18T00:33:37;10.37;;;6.47;;
19329;SDS011;9799;48.214;16.388;2022-12-18T00:37:00;8.23;;;5.93;;
19329;SDS011;9799;48.214;16.388;2022-12-18T00:40:21;10.20;;;7.23;;
19329;SDS011;9799;48.214;16.388;2022-12-18T00:43:42;12.27;;;7.60;;
19329;SDS011;9799;48.214;16.388;2022-12-18T00:47:02;10.73;;;7.00;;
19329;SDS011;9799;48.214;16.388;2022-12-18T00:50:24;14.33;;;8.33;;
19329;SDS011;9799;48.214;16.388;2022-12-18T00:53:47;11.93;;;7.73;;
19329;SDS011;9799;48.214;16.388;2022-12-18T00:57:08;12.83;;;7.70;;
19329;SDS011;9799;48.214;16.388;2022-12-18T01:00:29;10.97;;;8.20;;
19329;SDS011;9799;48.214;16.388;2022-12-18T01:03:50;14.60;;;8.27;;
19329;SDS011;9799;48.214;16.388;2022-12-18T01:07:11;11.73;;;7.70;;
19329;SDS011;9799;48.214;16.388;2022-12-18T01:10:34;13.20;;;8.47;;
19329;SDS011;9799;48.214;16.388;2022-12-18T01:13:55;12.80;;;8.83;;
19329;SDS011;9799;48.214;16.388;2022-12-18T01:17:16;32.13;;;18.77;;
19329;SDS011;9799;48.214;16.388;2022-12-18T01:20:37;19.83;;;12.27;;
19329;SDS011;9799;48.214;16.388;2022-12-18T01:23:59;23.67;;;12.20;;
19329;SDS011;9799;48.214;16.388;2022-12-18T01:27:21;14.43;;;11.10;;
19329;SDS011;9799;48.214;16.388;2022-12-18T01:30:42;20.90;;;11.17;;
19329;SDS011;9799;48.214;16.388;2022-12-18T01:34:03;17.30;;;12.10;;
19329;SDS011;9799;48.214;16.388;2022-12-18T01:37:25;20.00;;;12.07;;
19329;SDS011;9799;48.214;16.388;2022-12-18T01:40:46;19.03;;;11.23;;
19329;SDS011;9799;48.214;16.388;2022-12-18T01:48:04;21.17;;;13.10;;
19329;SDS011;9799;48.214;16.388;2022-12-18T01:51:29;20.77;;;12.50;;
19329;SDS011;9799;48.214;16.388;2022-12-18T01:54:50;20.73;;;12.33;;
19329;SDS011;9799;48.214;16.388;2022-12-18T01:58:13;19.63;;;12.03;;
19329;SDS011;9799;48.214;16.388;2022-12-18T02:01:35;16.67;;;11.40;;
19329;SDS011;9799;48.214;16.388;2022-12-18T02:04:59;19.03;;;11.10;;
19329;SDS011;9799;48.214;16.388;2022-12-18T02:08:24;17.13;;;11.30;;
19329;SDS011;9799;48.214;16.388;2022-12-18T02:11:52;20.20;;;12.43;;
19329;SDS011;9799;48.214;16.388;2022-12-18T02:15:21;20.60;;;11.93;;
19329;SDS011;9799;48.214;16.388;2022-12-18T02:18:47;16.40;;;11.70;;
19329;SDS011;9799;48.214;16.388;2022-12-18T02:22:17;23.10;;;12.43;;
19329;SDS011;9799;48.214;16.388;2022-12-18T02:25:58;20.20;;;12.93;;
19329;SDS011;9799;48.214;16.388;2022-12-18T02:29:28;20.17;;;12.70;;
19329;SDS011;9799;48.214;16.388;2022-12-18T02:32:54;20.73;;;13.43;;
19329;SDS011;9799;48.214;16.388;2022-12-18T02:36:16;22.67;;;14.13;;
19329;SDS011;9799;48.214;16.388;2022-12-18T02:39:39;21.23;;;13.10;;
19329;SDS011;9799;48.214;16.388;2022-12-18T02:43:08;18.57;;;13.00;;
19329;SDS011;9799;48.214;16.388;2022-12-18T02:46:31;23.37;;;13.43;;
19329;SDS011;9799;48.214;16.388;2022-12-18T02:49:57;19.33;;;12.53;;
19329;SDS011;9799;48.214;16.388;2022-12-18T02:53:28;20.97;;;12.47;;
19329;SDS011;9799;48.214;16.388;2022-12-18T02:56:58;19.93;;;12.37;;
19329;SDS011;9799;48.214;16.388;2022-12-18T03:00:30;26.53;;;14.03;;
19329;SDS011;9799;48.214;16.388;2022-12-18T03:03:57;18.97;;;12.97;;
19329;SDS011;9799;48.214;16.388;2022-12-18T03:07:24;21.17;;;12.33;;
19329;SDS011;9799;48.214;16.388;2022-12-18T03:10:49;20.07;;;12.93;;
19329;SDS011;9799;48.214;16.388;2022-12-18T03:14:15;18.50;;;12.53;;
19329;SDS011;9799;48.214;16.388;2022-12-18T03:17:39;18.63;;;13.03;;
19329;SDS011;9799;48.214;16.388;2022-12-18T03:21:05;18.73;;;11.73;;
19329;SDS011;9799;48.214;16.388;2022-12-18T03:24:28;23.03;;;13.17;;
19329;SDS011;9799;48.214;16.388;2022-12-18T03:27:51;19.87;;;13.40;;
19329;SDS011;9799;48.214;16.388;2022-12-18T03:31:16;22.70;;;13.43;;
19329;SDS011;9799;48.214;16.388;2022-12-18T03:34:41;22.23;;;13.97;;
19329;SDS011;9799;48.214;16.388;2022-12-18T03:38:04;22.27;;;13.57;;
19329;SDS011;9799;48.214;16.388;2022-12-18T03:41:28;20.77;;;14.20;;
19329;SDS011;9799;48.214;16.388;2022-12-18T03:44:53;21.47;;;13.67;;
19329;SDS011;9799;48.214;16.388;2022-12-18T03:48:19;22.77;;;14.03;;
19329;SDS011;9799;48.214;16.388;2022-12-18T03:51:48;22.90;;;13.27;;
19329;SDS011;9799;48.214;16.388;2022-12-18T03:55:13;26.67;;;15.00;;
19329;SDS011;9799;48.214;16.388;2022-12-18T03:58:34;23.33;;;14.53;;
19329;SDS011;9799;48.214;16.388;2022-12-18T04:01:59;23.80;;;14.37;;
19329;SDS011;9799;48.214;16.388;2022-12-18T04:05:21;31.40;;;16.50;;
19329;SDS011;9799;48.214;16.388;2022-12-18T04:08:46;24.67;;;15.63;;
19329;SDS011;9799;48.214;16.388;2022-12-18T04:12:08;25.50;;;13.50;;
19329;SDS011;9799;48.214;16.388;2022-12-18T04:15:30;23.67;;;15.20;;
19329;SDS011;9799;48.214;16.388;2022-12-18T04:18:55;27.57;;;15.33;;
19329;SDS011;9799;48.214;16.388;2022-12-18T04:22:16;23.13;;;14.83;;
19329;SDS011;9799;48.214;16.388;2022-12-18T04:25:38;26.77;;;15.53;;
19329;SDS011;9799;48.214;16.388;2022-12-18T04:29:00;25.67;;;14.63;;
19329;SDS011;9799;48.214;16.388;2022-12-18T04:32:21;30.00;;;15.07;;
19329;SDS011;9799;48.214;16.388;2022-12-18T04:35:42;25.33;;;15.43;;
19329;SDS011;9799;48.214;16.388;2022-12-18T04:39:03;24.43;;;15.30;;
19329;SDS011;9799;48.214;16.388;2022-12-18T04:42:26;25.43;;;14.57;;
19329;SDS011;9799;48.214;16.388;2022-12-18T04:45:47;22.73;;;14.50;;
19329;SDS011;9799;48.214;16.388;2022-12-18T04:49:08;21.47;;;13.97;;
19329;SDS011;9799;48.214;16.388;2022-12-18T04:52:30;19.03;;;13.17;;
19329;SDS011;9799;48.214;16.388;2022-12-18T04:55:51;23.80;;;15.20;;
19329;SDS011;9799;48.214;16.388;2022-12-18T04:59:24;25.70;;;14.23;;
19329;SDS011;9799;48.214;16.388;2022-12-18T05:02:45;24.73;;;14.83;;
19329;SDS011;9799;48.214;16.388;2022-12-18T05:06:06;25.23;;;15.47;;
19329;SDS011;9799;48.214;16.388;2022-12-18T05:09:29;29.90;;;16.20;;
19329;SDS011;9799;48.214;16.388;2022-12-18T05:12:50;30.77;;;16.67;;
19329;SDS011;9799;48.214;16.388;2022-12-18T05:16:22;23.77;;;14.23;;
19329;SDS011;9799;48.214;16.388;2022-12-18T05:19:43;26.57;;;15.47;;
19329;SDS011;9799;48.214;16.388;2022-12-18T05:23:04;26.27;;;15.90;;
19329;SDS011;9799;48.214;16.388;2022-12-18T05:26:25;26.00;;;15.40;;
19329;SDS011;9799;48.214;16.388;2022-12-18T05:29:46;27.83;;;16.33;;
19329;SDS011;9799;48.214;16.388;2022-12-18T05:33:08;28.70;;;15.63;;
19329;SDS011;9799;48.214;16.388;2022-12-18T05:36:30;28.67;;;16.57;;
19329;SDS011;9799;48.214;16.388;2022-12-18T05:39:51;27.57;;;16.60;;
19329;SDS011;9799;48.214;16.388;2022-12-18T05:43:12;26.00;;;15.77;;
19329;SDS011;9799;48.214;16.388;2022-12-18T05:46:33;29.47;;;16.47;;
19329;SDS011;9799;48.214;16.388;2022-12-18T05:49:57;27.07;;;15.50;;
19329;SDS011;9799;48.214;16.388;2022-12-18T05:53:19;28.17;;;16.97;;
19329;SDS011;9799;48.214;16.388;2022-12-18T05:56:40;25.40;;;16.10;;
19329;SDS011;9799;48.214;16.388;2022-12-18T06:00:02;28.23;;;16.40;;
19329;SDS011;9799;48.214;16.388;2022-12-18T06:03:24;28.90;;;17.00;;
19329;SDS011;9799;48.214;16.388;2022-12-18T06:06:47;37.03;;;16.53;;
19329;SDS011;9799;48.214;16.388;2022-12-18T06:10:08;28.00;;;15.57;;
19329;SDS011;9799;48.214;16.388;2022-12-18T06:13:29;39.10;;;23.13;;
19329;SDS011;9799;48.214;16.388;2022-12-18T06:16:50;33.97;;;17.27;;
19329;SDS011;9799;48.214;16.388;2022-12-18T06:20:11;27.50;;;16.73;;
19329;SDS011;9799;48.214;16.388;2022-12-18T06:23:34;24.83;;;15.93;;
19329;SDS011;9799;48.214;16.388;2022-12-18T06:26:56;26.23;;;15.73;;
19329;SDS011;9799;48.214;16.388;2022-12-18T06:30:17;28.40;;;16.50;;
19329;SDS011;9799;48.214;16.388;2022-12-18T06:33:38;28.77;;;17.40;;
19329;SDS011;9799;48.214;16.388;2022-12-18T06:37:00;32.83;;;17.40;;
19329;SDS011;9799;48.214;16.388;2022-12-18T06:40:22;28.07;;;16.33;;
19329;SDS011;9799;48.214;16.388;2022-12-18T06:43:43;28.40;;;17.83;;
19329;SDS011;9799;48.214;16.388;2022-12-18T06:47:05;28.37;;;17.37;;
19329;SDS011;9799;48.214;16.388;2022-12-18T06:50:26;26.03;;;15.40;;
19329;SDS011;9799;48.214;16.388;2022-12-18T06:53:47;25.23;;;16.97;;
19329;SDS011;9799;48.214;16.388;2022-12-18T06:57:10;29.63;;;17.63;;
19329;SDS011;9799;48.214;16.388;2022-12-18T07:00:31;25.80;;;16.97;;
19329;SDS011;9799;48.214;16.388;2022-12-18T07:03:52;27.83;;;17.40;;
19329;SDS011;9799;48.214;16.388;2022-12-18T07:07:15;30.87;;;18.70;;
19329;SDS011;9799;48.214;16.388;2022-12-18T07:10:40;29.77;;;17.57;;
19329;SDS011;9799;48.214;16.388;2022-12-18T07:14:03;31.00;;;18.33;;
19329;SDS011;9799;48.214;16.388;2022-12-18T07:17:24;31.27;;;17.23;;
19329;SDS011;9799;48.214;16.388;2022-12-18T07:20:45;27.50;;;16.70;;
19329;SDS011;9799;48.214;16.388;2022-12-18T07:24:07;26.57;;;16.80;;
19329;SDS011;9799;48.214;16.388;2022-12-18T07:27:28;25.10;;;15.27;;
19329;SDS011;9799;48.214;16.388;2022-12-18T07:30:50;27.00;;;16.07;;
19329;SDS011;9799;48.214;16.388;2022-12-18T07:34:12;23.70;;;15.17;;
19329;SDS011;9799;48.214;16.388;2022-12-18T07:37:34;29.27;;;16.33;;
19329;SDS011;9799;48.214;16.388;2022-12-18T07:40:59;26.27;;;16.33;;
19329;SDS011;9799;48.214;16.388;2022-12-18T07:44:21;28.83;;;16.50;;
19329;SDS011;9799;48.214;16.388;2022-12-18T07:47:43;30.20;;;17.83;;
19329;SDS011;9799;48.214;16.388;2022-12-18T07:51:05;30.57;;;17.33;;
19329;SDS011;9799;48.214;16.388;2022-12-18T07:54:27;28.40;;;17.53;;
19329;SDS011;9799;48.214;16.388;2022-12-18T07:57:48;29.30;;;17.10;;
19329;SDS011;9799;48.214;16.388;2022-12-18T08:01:10;29.70;;;17.70;;
19329;SDS011;9799;48.214;16.388;2022-12-18T08:04:36;27.57;;;16.90;;
19329;SDS011;9799;48.214;16.388;2022-12-18T08:07:58;25.83;;;16.63;;
19329;SDS011;9799;48.214;16.388;2022-12-18T08:11:19;26.83;;;17.93;;
19329;SDS011;9799;48.214;16.388;2022-12-18T08:14:40;27.47;;;17.17;;
19329;SDS011;9799;48.214;16.388;2022-12-18T08:18:01;29.87;;;17.13;;
19329;SDS011;9799;48.214;16.388;2022-12-18T08:21:24;27.27;;;17.37;;
19329;SDS011;9799;48.214;16.388;2022-12-18T08:24:47;29.53;;;17.53;;
19329;SDS011;9799;48.214;16.388;2022-12-18T08:28:08;26.37;;;17.70;;
19329;SDS011;9799;48.214;16.388;2022-12-18T08:31:29;30.83;;;19.07;;
19329;SDS011;9799;48.214;16.388;2022-12-18T08:34:52;29.73;;;19.53;;
19329;SDS011;9799;48.214;16.388;2022-12-18T08:38:14;32.63;;;18.83;;
19329;SDS011;9799;48.214;16.388;2022-12-18T08:41:36;31.07;;;19.13;;
19329;SDS011;9799;48.214;16.388;2022-12-18T08:44:57;26.27;;;18.00;;
19329;SDS011;9799;48.214;16.388;2022-12-18T08:48:17;32.33;;;19.40;;
19329;SDS011;9799;48.214;16.388;2022-12-18T08:51:38;29.07;;;17.70;;
19329;SDS011;9799;48.214;16.388;2022-12-18T08:55:01;30.87;;;19.37;;
19329;SDS011;9799;48.214;16.388;2022-12-18T08:58:22;36.60;;;18.77;;
19329;SDS011;9799;48.214;16.388;2022-12-18T09:01:43;33.57;;;21.07;;
19329;SDS011;9799;48.214;16.388;2022-12-18T09:05:05;33.27;;;19.93;;
19329;SDS011;9799;48.214;16.388;2022-12-18T09:08:26;31.43;;;18.93;;
19329;SDS011;9799;48.214;16.388;2022-12-18T09:11:49;36.20;;;20.37;;
19329;SDS011;9799;48.214;16.388;2022-12-18T09:15:11;35.50;;;20.43;;
19329;SDS011;9799;48.214;16.388;2022-12-18T09:18:32;35.77;;;21.37;;
19329;SDS011;9799;48.214;16.388;2022-12-18T09:21:53;38.83;;;21.63;;
19329;SDS011;9799;48.214;16.388;2022-12-18T09:25:14;35.20;;;19.93;;
19329;SDS011;9799;48.214;16.388;2022-12-18T09:28:37;38.93;;;21.03;;
19329;SDS011;9799;48.214;16.388;2022-12-18T09:31:58;37.27;;;22.40;;
19329;SDS011;9799;48.214;16.388;2022-12-18T09:35:19;33.03;;;19.87;;
19329;SDS011;9799;48.214;16.388;2022-12-18T09:38:40;33.60;;;19.40;;
19329;SDS011;9799;48.214;16.388;2022-12-18T09:42:01;38.00;;;21.17;;
19329;SDS011;9799;48.214;16.388;2022-12-18T09:45:24;33.13;;;20.53;;
19329;SDS011;9799;48.214;16.388;2022-12-18T09:48:47;41.47;;;23.63;;
19329;SDS011;9799;48.214;16.388;2022-12-18T09:52:12;38.30;;;22.73;;
19329;SDS011;9799;48.214;16.388;2022-12-18T09:55:39;39.13;;;21.23;;
19329;SDS011;9799;48.214;16.388;2022-12-18T09:59:03;34.73;;;21.20;;
19329;SDS011;9799;48.214;16.388;2022-12-18T10:02:26;41.13;;;23.10;;
19329;SDS011;9799;48.214;16.388;2022-12-18T10:05:55;37.80;;;22.13;;
19329;SDS011;9799;48.214;16.388;2022-12-18T10:09:24;71.07;;;39.90;;
19329;SDS011;9799;48.214;16.388;2022-12-18T10:12:52;55.50;;;32.03;;
19329;SDS011;9799;48.214;16.388;2022-12-18T10:16:22;40.67;;;23.50;;
19329;SDS011;9799;48.214;16.388;2022-12-18T10:19:50;38.63;;;24.30;;
19329;SDS011;9799;48.214;16.388;2022-12-18T10:23:17;37.67;;;20.60;;
19329;SDS011;9799;48.214;16.388;2022-12-18T10:26:44;31.53;;;18.90;;
19329;SDS011;9799;48.214;16.388;2022-12-18T10:30:14;33.37;;;19.83;;
19329;SDS011;9799;48.214;16.388;2022-12-18T10:33:37;32.73;;;18.87;;
19329;SDS011;9799;48.214;16.388;2022-12-18T10:37:01;35.47;;;18.87;;
19329;SDS011;9799;48.214;16.388;2022-12-18T10:40:34;31.53;;;18.43;;
19329;SDS011;9799;48.214;16.388;2022-12-18T10:44:11;32.37;;;20.73;;
19329;SDS011;9799;48.214;16.388;2022-12-18T10:47:35;36.70;;;20.83;;
19329;SDS011;9799;48.214;16.388;2022-12-18T10:51:02;36.27;;;21.30;;
19329;SDS011;9799;48.214;16.388;2022-12-18T10:54:25;34.93;;;20.40;;
19329;SDS011;9799;48.214;16.388;2022-12-18T10:57:48;35.23;;;20.70;;
19329;SDS011;9799;48.214;16.388;2022-12-18T11:01:09;46.13;;;26.13;;
19329;SDS011;9799;48.214;16.388;2022-12-18T11:04:32;49.30;;;28.03;;
19329;SDS011;9799;48.214;16.388;2022-12-18T11:07:54;38.23;;;23.27;;
19329;SDS011;9799;48.214;16.388;2022-12-18T11:11:19;41.73;;;23.97;;
19329;SDS011;9799;48.214;16.388;2022-12-18T11:14:42;34.13;;;19.27;;
19329;SDS011;9799;48.214;16.388;2022-12-18T11:18:04;34.13;;;22.10;;
19329;SDS011;9799;48.214;16.388;2022-12-18T11:21:38;32.90;;;19.73;;
19329;SDS011;9799;48.214;16.388;2022-12-18T11:25:02;34.43;;;19.93;;
19329;SDS011;9799;48.214;16.388;2022-12-18T11:28:28;37.97;;;21.63;;
19329;SDS011;9799;48.214;16.388;2022-12-18T11:32:13;36.13;;;20.67;;
19329;SDS011;9799;48.214;16.388;2022-12-18T11:36:00;34.57;;;20.23;;
19329;SDS011;9799;48.214;16.388;2022-12-18T11:39:24;37.60;;;20.77;;
19329;SDS011;9799;48.214;16.388;2022-12-18T11:42:53;39.27;;;22.27;;
19329;SDS011;9799;48.214;16.388;2022-12-18T11:46:23;37.53;;;21.27;;
19329;SDS011;9799;48.214;16.388;2022-12-18T11:49:51;34.00;;;19.63;;
19329;SDS011;9799;48.214;16.388;2022-12-18T11:53:13;36.53;;;19.63;;
19329;SDS011;9799;48.214;16.388;2022-12-18T11:56:35;35.50;;;20.43;;
19329;SDS011;9799;48.214;16.388;2022-12-18T11:59:59;40.37;;;20.67;;
19329;SDS011;9799;48.214;16.388;2022-12-18T12:03:34;39.73;;;20.87;;
19329;SDS011;9799;48.214;16.388;2022-12-18T12:07:12;36.10;;;20.73;;
19329;SDS011;9799;48.214;16.388;2022-12-18T12:10:51;37.30;;;22.03;;
19329;SDS011;9799;48.214;16.388;2022-12-18T12:14:19;45.07;;;22.73;;
19329;SDS011;9799;48.214;16.388;2022-12-18T12:18:01;37.77;;;22.67;;
19329;SDS011;9799;48.214;16.388;2022-12-18T12:21:35;36.33;;;22.00;;
19329;SDS011;9799;48.214;16.388;2022-12-18T12:25:11;33.53;;;21.33;;
19329;SDS011;9799;48.214;16.388;2022-12-18T12:28:53;42.13;;;22.90;;
19329;SDS011;9799;48.214;16.388;2022-12-18T12:32:33;41.10;;;23.50;;
19329;SDS011;9799;48.214;16.388;2022-12-18T12:36:08;41.27;;;23.17;;
19329;SDS011;9799;48.214;16.388;2022-12-18T12:39:39;45.27;;;23.63;;
19329;SDS011;9799;48.214;16.388;2022-12-18T12:43:03;43.20;;;22.80;;
19329;SDS011;9799;48.214;16.388;2022-12-18T12:46:36;40.20;;;23.60;;
19329;SDS011;9799;48.214;16.388;2022-12-18T12:50:02;37.43;;;21.67;;
19329;SDS011;9799;48.214;16.388;2022-12-18T12:53:26;36.60;;;20.93;;
19329;SDS011;9799;48.214;16.388;2022-12-18T12:56:53;41.20;;;22.60;;
19329;SDS011;9799;48.214;16.388;2022-12-18T13:00:18;39.77;;;22.80;;
19329;SDS011;9799;48.214;16.388;2022-12-18T13:03:42;39.70;;;21.87;;
19329;SDS011;9799;48.214;16.388;2022-12-18T13:07:12;36.00;;;21.40;;
19329;SDS011;9799;48.214;16.388;2022-12-18T13:10:37;41.57;;;23.00;;
19329;SDS011;9799;48.214;16.388;2022-12-18T13:14:01;37.30;;;21.87;;
19329;SDS011;9799;48.214;16.388;2022-12-18T13:17:24;83.87;;;42.20;;
19329;SDS011;9799;48.214;16.388;2022-12-18T13:20:50;55.63;;;30.27;;
19329;SDS011;9799;48.214;16.388;2022-12-18T13:24:24;49.60;;;25.57;;
19329;SDS011;9799;48.214;16.388;2022-12-18T13:27:57;45.47;;;23.73;;
19329;SDS011;9799;48.214;16.388;2022-12-18T13:35:38;42.13;;;21.30;;
19329;SDS011;9799;48.214;16.388;2022-12-18T13:42:54;37.07;;;21.70;;
19329;SDS011;9799;48.214;16.388;2022-12-18T13:46:42;36.10;;;21.10;;
19329;SDS011;9799;48.214;16.388;2022-12-18T13:50:09;39.00;;;23.27;;
19329;SDS011;9799;48.214;16.388;2022-12-18T13:53:44;40.73;;;22.57;;
19329;SDS011;9799;48.214;16.388;2022-12-18T13:57:24;43.90;;;25.37;;
19329;SDS011;9799;48.214;16.388;2022-12-18T14:00:47;45.57;;;24.20;;
19329;SDS011;9799;48.214;16.388;2022-12-18T14:04:09;46.93;;;26.27;;
19329;SDS011;9799;48.214;16.388;2022-12-18T14:07:32;51.87;;;29.13;;
19329;SDS011;9799;48.214;16.388;2022-12-18T14:10:55;54.43;;;29.10;;
19329;SDS011;9799;48.214;16.388;2022-12-18T14:14:16;49.57;;;29.60;;
19329;SDS011;9799;48.214;16.388;2022-12-18T14:17:39;48.00;;;26.30;;
19329;SDS011;9799;48.214;16.388;2022-12-18T14:21:01;46.17;;;27.13;;
19329;SDS011;9799;48.214;16.388;2022-12-18T14:24:23;46.57;;;25.67;;
19329;SDS011;9799;48.214;16.388;2022-12-18T14:27:47;48.03;;;25.27;;
19329;SDS011;9799;48.214;16.388;2022-12-18T14:31:16;46.07;;;25.77;;
19329;SDS011;9799;48.214;16.388;2022-12-18T14:34:38;47.13;;;24.53;;
19329;SDS011;9799;48.214;16.388;2022-12-18T14:38:10;52.67;;;23.33;;
19329;SDS011;9799;48.214;16.388;2022-12-18T14:41:39;46.87;;;26.87;;
19329;SDS011;9799;48.214;16.388;2022-12-18T14:48:56;46.13;;;24.10;;
19329;SDS011;9799;48.214;16.388;2022-12-18T14:52:20;46.43;;;23.50;;
19329;SDS011;9799;48.214;16.388;2022-12-18T14:55:44;50.20;;;24.73;;
19329;SDS011;9799;48.214;16.388;2022-12-18T14:59:12;51.80;;;26.70;;
19329;SDS011;9799;48.214;16.388;2022-12-18T15:02:37;52.53;;;26.53;;
19329;SDS011;9799;48.214;16.388;2022-12-18T15:09:36;62.00;;;34.20;;
19329;SDS011;9799;48.214;16.388;2022-12-18T15:13:15;66.33;;;34.63;;
19329;SDS011;9799;48.214;16.388;2022-12-18T15:16:42;47.60;;;24.63;;
19329;SDS011;9799;48.214;16.388;2022-12-18T15:20:09;53.67;;;26.53;;
19329;SDS011;9799;48.214;16.388;2022-12-18T15:23:35;53.87;;;27.13;;
19329;SDS011;9799;48.214;16.388;2022-12-18T15:26:59;48.87;;;24.60;;
19329;SDS011;9799;48.214;16.388;2022-12-18T15:30:22;42.67;;;24.67;;
19329;SDS011;9799;48.214;16.388;2022-12-18T15:33:45;44.33;;;23.90;;
19329;SDS011;9799;48.214;16.388;2022-12-18T15:37:24;51.73;;;25.40;;
19329;SDS011;9799;48.214;16.388;2022-12-18T15:40:47;50.77;;;26.10;;
19329;SDS011;9799;48.214;16.388;2022-12-18T15:44:20;48.73;;;24.30;;
19329;SDS011;9799;48.214;16.388;2022-12-18T15:47:44;43.90;;;22.30;;
19329;SDS011;9799;48.214;16.388;2022-12-18T15:51:08;48.00;;;25.03;;
19329;SDS011;9799;48.214;16.388;2022-12-18T15:54:37;45.87;;;23.67;;
19329;SDS011;9799;48.214;16.388;2022-12-18T15:58:16;47.30;;;24.40;;
19329;SDS011;9799;48.214;16.388;2022-12-18T16:01:39;53.33;;;23.97;;
19329;SDS011;9799;48.214;16.388;2022-12-18T16:05:02;44.60;;;22.60;;
19329;SDS011;9799;48.214;16.388;2022-12-18T16:08:31;45.87;;;23.60;;
19329;SDS011;9799;48.214;16.388;2022-12-18T16:11:54;44.87;;;25.90;;
19329;SDS011;9799;48.214;16.388;2022-12-18T16:15:16;40.13;;;25.33;;
19329;SDS011;9799;48.214;16.388;2022-12-18T16:18:39;43.40;;;24.30;;
19329;SDS011;9799;48.214;16.388;2022-12-18T16:22:00;46.20;;;24.07;;
19329;SDS011;9799;48.214;16.388;2022-12-18T16:25:23;45.80;;;24.90;;
19329;SDS011;9799;48.214;16.388;2022-12-18T16:28:48;43.07;;;24.20;;
19329;SDS011;9799;48.214;16.388;2022-12-18T16:32:11;44.37;;;25.80;;
19329;SDS011;9799;48.214;16.388;2022-12-18T16:35:35;47.80;;;25.83;;
19329;SDS011;9799;48.214;16.388;2022-12-18T16:38:57;46.13;;;25.20;;
19329;SDS011;9799;48.214;16.388;2022-12-18T16:42:19;43.63;;;23.27;;
19329;SDS011;9799;48.214;16.388;2022-12-18T16:45:43;44.37;;;25.57;;
19329;SDS011;9799;48.214;16.388;2022-12-18T16:49:05;48.07;;;25.40;;
19329;SDS011;9799;48.214;16.388;2022-12-18T16:52:28;47.43;;;28.27;;
19329;SDS011;9799;48.214;16.388;2022-12-18T16:55:53;45.67;;;26.63;;
19329;SDS011;9799;48.214;16.388;2022-12-18T16:59:16;59.37;;;33.90;;
19329;SDS011;9799;48.214;16.388;2022-12-18T17:02:42;47.33;;;27.37;;
19329;SDS011;9799;48.214;16.388;2022-12-18T17:06:05;40.50;;;23.60;;
19329;SDS011;9799;48.214;16.388;2022-12-18T17:09:29;47.60;;;26.70;;
19329;SDS011;9799;48.214;16.388;2022-12-18T17:12:52;51.70;;;25.67;;
19329;SDS011;9799;48.214;16.388;2022-12-18T17:16:13;43.37;;;24.57;;
19329;SDS011;9799;48.214;16.388;2022-12-18T17:19:37;44.40;;;24.23;;
19329;SDS011;9799;48.214;16.388;2022-12-18T17:22:59;41.77;;;24.60;;
19329;SDS011;9799;48.214;16.388;2022-12-18T17:26:22;43.63;;;23.63;;
19329;SDS011;9799;48.214;16.388;2022-12-18T17:29:44;35.23;;;21.67;;
19329;SDS011;9799;48.214;16.388;2022-12-18T17:33:06;39.53;;;21.77;;
19329;SDS011;9799;48.214;16.388;2022-12-18T17:36:30;41.77;;;24.00;;
19329;SDS011;9799;48.214;16.388;2022-12-18T17:39:53;39.10;;;21.30;;
19329;SDS011;9799;48.214;16.388;2022-12-18T17:43:16;39.90;;;23.37;;
19329;SDS011;9799;48.214;16.388;2022-12-18T17:46:38;38.87;;;21.60;;
19329;SDS011;9799;48.214;16.388;2022-12-18T17:50:01;40.17;;;23.13;;
19329;SDS011;9799;48.214;16.388;2022-12-18T17:53:32;37.67;;;22.47;;
19329;SDS011;9799;48.214;16.388;2022-12-18T17:56:54;41.83;;;24.73;;
19329;SDS011;9799;48.214;16.388;2022-12-18T18:00:17;39.17;;;21.90;;
19329;SDS011;9799;48.214;16.388;2022-12-18T18:03:40;46.27;;;24.57;;
19329;SDS011;9799;48.214;16.388;2022-12-18T18:07:02;43.83;;;23.97;;
19329;SDS011;9799;48.214;16.388;2022-12-18T18:10:25;39.90;;;22.33;;
19329;SDS011;9799;48.214;16.388;2022-12-18T18:13:48;42.60;;;23.53;;
19329;SDS011;9799;48.214;16.388;2022-12-18T18:17:21;46.60;;;26.33;;
19329;SDS011;9799;48.214;16.388;2022-12-18T18:20:45;41.33;;;23.83;;
19329;SDS011;9799;48.214;16.388;2022-12-18T18:24:09;45.00;;;25.00;;
19329;SDS011;9799;48.214;16.388;2022-12-18T18:27:34;45.23;;;24.50;;
19329;SDS011;9799;48.214;16.388;2022-12-18T18:30:56;48.37;;;25.30;;
19329;SDS011;9799;48.214;16.388;2022-12-18T18:34:18;41.13;;;24.93;;
19329;SDS011;9799;48.214;16.388;2022-12-18T18:37:46;46.63;;;25.30;;
19329;SDS011;9799;48.214;16.388;2022-12-18T18:41:09;42.83;;;24.03;;
19329;SDS011;9799;48.214;16.388;2022-12-18T18:44:33;40.03;;;22.53;;
19329;SDS011;9799;48.214;16.388;2022-12-18T18:47:55;41.47;;;23.60;;
19329;SDS011;9799;48.214;16.388;2022-12-18T18:51:17;38.17;;;20.80;;
19329;SDS011;9799;48.214;16.388;2022-12-18T18:54:40;33.80;;;21.00;;
19329;SDS011;9799;48.214;16.388;2022-12-18T18:58:02;40.37;;;23.50;;
19329;SDS011;9799;48.214;16.388;2022-12-18T19:01:25;43.27;;;23.50;;
19329;SDS011;9799;48.214;16.388;2022-12-18T19:04:48;42.60;;;21.77;;
19329;SDS011;9799;48.214;16.388;2022-12-18T19:08:10;38.73;;;21.27;;
19329;SDS011;9799;48.214;16.388;2022-12-18T19:11:32;40.20;;;21.40;;
19329;SDS011;9799;48.214;16.388;2022-12-18T19:15:11;35.53;;;19.33;;
19329;SDS011;9799;48.214;16.388;2022-12-18T19:18:34;34.83;;;18.50;;
19329;SDS011;9799;48.214;16.388;2022-12-18T19:21:57;33.33;;;19.07;;
19329;SDS011;9799;48.214;16.388;2022-12-18T19:25:19;33.27;;;18.47;;
19329;SDS011;9799;48.214;16.388;2022-12-18T19:28:41;30.70;;;19.10;;
19329;SDS011;9799;48.214;16.388;2022-12-18T19:32:03;33.10;;;19.77;;
19329;SDS011;9799;48.214;16.388;2022-12-18T19:35:29;31.97;;;18.37;;
19329;SDS011;9799;48.214;16.388;2022-12-18T19:38:52;33.77;;;19.47;;
19329;SDS011;9799;48.214;16.388;2022-12-18T19:42:15;33.37;;;19.13;;
19329;SDS011;9799;48.214;16.388;2022-12-18T19:45:37;36.83;;;19.57;;
19329;SDS011;9799;48.214;16.388;2022-12-18T19:49:00;35.53;;;19.60;;
19329;SDS011;9799;48.214;16.388;2022-12-18T19:52:28;33.27;;;20.93;;
19329;SDS011;9799;48.214;16.388;2022-12-18T19:55:51;32.63;;;19.43;;
19329;SDS011;9799;48.214;16.388;2022-12-18T19:59:13;30.37;;;20.07;;
19329;SDS011;9799;48.214;16.388;2022-12-18T20:02:34;35.43;;;19.90;;
19329;SDS011;9799;48.214;16.388;2022-12-18T20:06:06;35.07;;;19.13;;
19329;SDS011;9799;48.214;16.388;2022-12-18T20:09:31;36.43;;;20.53;;
19329;SDS011;9799;48.214;16.388;2022-12-18T20:12:54;34.50;;;19.33;;
19329;SDS011;9799;48.214;16.388;2022-12-18T20:16:26;35.07;;;20.60;;